createdAt,value
2022-10-19T00:00:09.295Z,4.55
2022-10-19T00:01:15.893Z,4.32
2022-10-19T00:02:17.699Z,4.10
2022-10-19T00:03:22.319Z,4.43
2022-10-19T00:04:24.777Z,4.30
2022-10-19T00:05:26.210Z,4.68
2022-10-19T00:06:30.618Z,3.78
2022-10-19T00:07:33.834Z,4.65
2022-10-19T00:08:35.422Z,4.47
2022-10-19T00:09:36.954Z,4.85
2022-10-19T00:10:40.821Z,5.57
2022-10-19T00:11:45.401Z,6.00
2022-10-19T00:13:54.648Z,5.20
2022-10-19T00:14:56.435Z,5.25
2022-10-19T00:15:57.971Z,5.50
2022-10-19T00:16:59.388Z,5.93
2022-10-19T00:18:01.956Z,5.95
2022-10-19T00:19:07.138Z,5.55
2022-10-19T00:20:09.164Z,6.50
2022-10-19T00:21:14.091Z,5.85
2022-10-19T00:22:15.454Z,5.80
2022-10-19T00:23:16.908Z,5.90
2022-10-19T00:24:19.125Z,5.97
2022-10-19T00:25:20.527Z,6.30
2022-10-19T00:26:21.904Z,6.40
2022-10-19T00:27:24.459Z,6.75
2022-10-19T00:28:26.761Z,7.80
2022-10-19T00:29:28.155Z,7.78
2022-10-19T00:30:29.936Z,7.75
2022-10-19T00:31:31.600Z,8.07
2022-10-19T00:32:33.158Z,8.48
2022-10-19T00:33:34.858Z,8.85
2022-10-19T00:34:36.239Z,8.73
2022-10-19T00:35:40.620Z,7.65
2022-10-19T00:36:42.101Z,8.98
2022-10-19T00:37:43.515Z,9.60
2022-10-19T00:38:45.056Z,8.57
2022-10-19T00:39:46.610Z,8.48
2022-10-19T00:40:48.935Z,8.43
2022-10-19T00:41:50.380Z,8.48
2022-10-19T00:42:55.838Z,8.20
2022-10-19T00:44:04.799Z,8.32
2022-10-19T00:45:13.208Z,8.02
2022-10-19T00:46:14.918Z,8.35
2022-10-19T00:47:18.711Z,7.35
2022-10-19T00:48:27.185Z,9.00
2022-10-19T00:49:32.103Z,8.73
2022-10-19T00:50:33.494Z,8.85
2022-10-19T00:51:39.506Z,9.07
2022-10-19T00:52:41.402Z,9.05
2022-10-19T00:53:42.845Z,9.05
2022-10-19T00:54:46.783Z,9.30
2022-10-19T00:55:48.426Z,10.10
2022-10-19T00:56:53.224Z,8.30
2022-10-19T00:57:54.873Z,8.80
2022-10-19T00:58:56.308Z,9.38
2022-10-19T00:59:59.829Z,9.40
2022-10-19T01:01:04.497Z,9.15
2022-10-19T01:02:07.048Z,8.93
2022-10-19T01:03:11.488Z,9.80
2022-10-19T01:04:13.754Z,8.52
2022-10-19T01:05:16.267Z,8.88
2022-10-19T01:06:20.003Z,9.13
2022-10-19T01:07:21.698Z,8.27
2022-10-19T01:08:23.331Z,9.15
2022-10-19T01:09:24.839Z,8.38
2022-10-19T01:10:47.729Z,7.15
2022-10-19T01:12:08.622Z,8.10
2022-10-19T01:13:25.841Z,8.40
2022-10-19T01:14:51.763Z,8.20
2022-10-19T01:16:04.049Z,8.60
2022-10-19T01:17:31.574Z,8.10
2022-10-19T01:18:55.372Z,8.95
2022-10-19T01:20:32.836Z,8.00
2022-10-19T01:22:04.911Z,9.23
2022-10-19T01:23:42.366Z,8.85
2022-10-19T01:25:08.345Z,8.55
2022-10-19T01:26:48.755Z,9.55
2022-10-19T01:27:56.465Z,8.98
2022-10-19T01:29:22.819Z,9.05
2022-10-19T01:30:46.171Z,11.90
2022-10-19T01:32:09.711Z,10.43
2022-10-19T01:33:19.050Z,12.70
2022-10-19T01:34:31.349Z,13.60
2022-10-19T01:35:44.819Z,13.00
2022-10-19T01:37:07.524Z,13.10
2022-10-19T01:38:17.892Z,13.00
2022-10-19T01:39:26.506Z,12.27
2022-10-19T01:40:38.660Z,12.73
2022-10-19T01:41:57.193Z,11.27
2022-10-19T01:43:04.949Z,11.55
2022-10-19T01:44:25.884Z,10.70
2022-10-19T01:45:33.830Z,11.75
2022-10-19T01:46:40.884Z,10.75
2022-10-19T01:47:59.588Z,10.52
2022-10-19T01:49:09.370Z,12.57
2022-10-19T01:50:19.164Z,11.00
2022-10-19T01:51:24.805Z,9.85
2022-10-19T01:52:27.741Z,10.02
2022-10-19T01:53:33.509Z,10.52
2022-10-19T01:54:42.763Z,10.20
2022-10-19T01:55:47.616Z,10.13
2022-10-19T01:56:50.097Z,10.60
2022-10-19T01:57:56.715Z,11.43
2022-10-19T01:59:01.560Z,11.52
2022-10-19T02:00:07.594Z,10.18
2022-10-19T02:01:13.112Z,9.63
2022-10-19T02:02:17.496Z,8.93
2022-10-19T02:03:19.987Z,8.95
2022-10-19T02:04:23.588Z,9.93
2022-10-19T02:05:34.432Z,9.05
2022-10-19T02:06:36.116Z,8.38
2022-10-19T02:07:40.612Z,9.25
2022-10-19T02:08:46.635Z,9.82
2022-10-19T02:09:48.307Z,9.60
2022-10-19T02:10:50.551Z,9.80
2022-10-19T02:11:57.259Z,10.23
2022-10-19T02:13:00.662Z,9.43
2022-10-19T02:14:09.348Z,9.55
2022-10-19T02:15:14.518Z,9.65
2022-10-19T02:16:25.906Z,9.88
2022-10-19T02:17:31.884Z,9.70
2022-10-19T02:18:40.499Z,10.35
2022-10-19T02:19:42.628Z,10.57
2022-10-19T02:20:44.426Z,9.07
2022-10-19T02:21:46.204Z,8.68
2022-10-19T02:22:47.614Z,9.10
2022-10-19T02:23:51.893Z,8.65
2022-10-19T02:24:55.497Z,9.30
2022-10-19T02:25:57.615Z,9.07
2022-10-19T02:27:00.609Z,8.40
2022-10-19T02:28:04.229Z,8.85
2022-10-19T02:29:06.087Z,8.85
2022-10-19T02:30:10.260Z,9.38
2022-10-19T02:31:11.985Z,8.90
2022-10-19T02:32:14.018Z,9.15
2022-10-19T02:33:16.071Z,9.60
2022-10-19T02:34:17.483Z,9.65
2022-10-19T02:35:19.116Z,8.88
2022-10-19T02:36:21.328Z,8.45
2022-10-19T02:37:25.577Z,9.82
2022-10-19T02:38:28.020Z,10.50
2022-10-19T02:39:29.648Z,9.73
2022-10-19T02:40:38.031Z,10.00
2022-10-19T02:41:44.264Z,9.73
2022-10-19T02:42:51.007Z,9.57
2022-10-19T02:43:59.109Z,10.32
2022-10-19T02:45:12.123Z,10.63
2022-10-19T02:46:34.938Z,10.27
2022-10-19T02:47:50.768Z,10.13
2022-10-19T02:48:57.808Z,10.27
2022-10-19T02:49:59.512Z,10.50
2022-10-19T02:51:00.867Z,9.93
2022-10-19T02:52:05.648Z,9.73
2022-10-19T02:53:07.100Z,10.60
2022-10-19T02:54:08.738Z,9.30
2022-10-19T02:55:10.382Z,9.75
2022-10-19T02:56:11.742Z,9.70
2022-10-19T02:57:21.866Z,10.18
2022-10-19T02:58:23.292Z,9.82
2022-10-19T02:59:25.606Z,10.43
2022-10-19T03:00:26.972Z,10.32
2022-10-19T03:01:28.488Z,10.20
2022-10-19T03:02:29.959Z,10.90
2022-10-19T03:03:31.331Z,12.07
2022-10-19T03:04:33.093Z,10.80
2022-10-19T03:05:34.545Z,11.05
2022-10-19T03:06:36.032Z,11.05
2022-10-19T03:07:37.627Z,10.27
2022-10-19T03:08:39.124Z,10.15
2022-10-19T03:09:41.932Z,11.18
2022-10-19T03:10:43.411Z,9.98
2022-10-19T03:11:44.775Z,9.02
2022-10-19T03:12:46.199Z,9.77
2022-10-19T03:14:48.995Z,9.57
2022-10-19T03:15:50.702Z,9.88
2022-10-19T03:16:52.120Z,11.43
2022-10-19T03:17:53.862Z,10.02
2022-10-19T03:18:55.279Z,9.93
2022-10-19T03:19:56.810Z,9.27
2022-10-19T03:21:10.210Z,9.10
2022-10-19T03:22:13.798Z,9.68
2022-10-19T03:23:15.190Z,9.10
2022-10-19T03:24:17.082Z,8.77
2022-10-19T03:25:18.798Z,10.43
2022-10-19T03:26:20.284Z,10.40
2022-10-19T03:27:21.729Z,10.10
2022-10-19T03:28:23.120Z,10.27
2022-10-19T03:29:24.690Z,9.25
2022-10-19T03:30:26.418Z,8.82
2022-10-19T03:31:27.885Z,9.07
2022-10-19T03:32:29.259Z,10.07
2022-10-19T03:33:30.651Z,9.18
2022-10-19T03:34:32.104Z,9.25
2022-10-19T03:35:33.545Z,9.55
2022-10-19T03:36:37.103Z,9.43
2022-10-19T03:37:38.483Z,9.93
2022-10-19T03:38:39.844Z,9.98
2022-10-19T03:39:41.327Z,10.68
2022-10-19T03:40:43.176Z,10.70
2022-10-19T03:41:44.823Z,10.35
2022-10-19T03:42:46.171Z,11.13
2022-10-19T03:43:48.121Z,11.18
2022-10-19T03:44:49.514Z,11.93
2022-10-19T03:45:52.640Z,11.25
2022-10-19T03:46:54.247Z,9.90
2022-10-19T03:47:55.745Z,11.73
2022-10-19T03:48:57.142Z,9.65
2022-10-19T03:49:58.636Z,11.05
2022-10-19T03:51:05.242Z,8.70
2022-10-19T03:52:06.685Z,8.88
2022-10-19T03:53:08.334Z,9.02
2022-10-19T03:54:15.570Z,8.63
2022-10-19T03:55:17.251Z,9.48
2022-10-19T03:56:20.874Z,9.15
2022-10-19T03:57:22.319Z,8.65
2022-10-19T03:58:23.726Z,8.23
2022-10-19T03:59:25.475Z,8.57
2022-10-19T04:00:27.256Z,8.98
2022-10-19T04:01:31.626Z,10.00
2022-10-19T04:02:33.232Z,9.95
2022-10-19T04:04:37.327Z,9.82
2022-10-19T04:05:38.729Z,9.88
2022-10-19T04:07:18.081Z,8.82
2022-10-19T04:08:19.663Z,9.23
2022-10-19T04:09:23.063Z,9.80
2022-10-19T04:10:24.683Z,9.30
2022-10-19T04:11:28.526Z,9.63
2022-10-19T04:12:29.959Z,10.20
2022-10-19T04:13:32.749Z,9.65
2022-10-19T04:14:45.787Z,10.00
2022-10-19T04:15:55.674Z,10.20
2022-10-19T04:16:57.379Z,9.43
2022-10-19T04:17:58.838Z,9.90
2022-10-19T04:19:00.824Z,9.52
2022-10-19T04:20:02.567Z,10.38
2022-10-19T04:21:05.905Z,9.52
2022-10-19T04:22:07.299Z,9.85
2022-10-19T04:23:08.750Z,10.68
2022-10-19T04:24:14.245Z,9.50
2022-10-19T04:25:15.773Z,9.65
2022-10-19T04:26:17.569Z,8.93
2022-10-19T04:27:19.158Z,9.48
2022-10-19T04:28:20.555Z,9.63
2022-10-19T04:29:27.910Z,9.10
2022-10-19T04:30:31.553Z,9.60
2022-10-19T04:31:33.011Z,9.65
2022-10-19T04:32:34.374Z,8.85
2022-10-19T04:33:35.988Z,8.93
2022-10-19T04:34:40.072Z,9.40
2022-10-19T04:35:41.716Z,9.43
2022-10-19T04:36:43.402Z,8.88
2022-10-19T07:10:32.732Z,8.90
2022-10-19T07:11:38.874Z,9.38
2022-10-19T07:13:04.835Z,8.65
2022-10-19T07:14:07.415Z,9.70
2022-10-19T07:15:32.286Z,9.80
2022-10-19T07:41:12.670Z,7.75
2022-10-19T07:42:24.648Z,9.55
2022-10-19T07:43:38.471Z,10.05
2022-10-19T07:44:41.310Z,10.10
2022-10-19T07:45:47.111Z,9.77
2022-10-19T07:46:53.211Z,9.50
2022-10-19T07:47:55.628Z,9.93
2022-10-19T07:48:58.425Z,9.77
2022-10-19T07:50:02.711Z,10.20
2022-10-19T07:51:09.411Z,9.82
2022-10-19T07:52:11.491Z,9.97
2022-10-19T07:53:35.624Z,9.32
2022-10-19T07:54:37.373Z,9.85
2022-10-19T07:55:43.751Z,9.50
2022-10-19T07:56:45.429Z,8.98
2022-10-19T07:57:49.645Z,9.90
2022-10-19T07:58:54.529Z,10.27
2022-10-19T07:59:57.630Z,9.00
2022-10-19T08:01:00.351Z,9.13
2022-10-19T08:02:04.853Z,9.95
2022-10-19T08:05:59.889Z,9.77
2022-10-19T08:07:01.471Z,10.25
2022-10-19T08:08:06.237Z,10.60
2022-10-19T08:09:08.465Z,9.85
2022-10-19T08:10:22.001Z,10.13
2022-10-19T08:11:37.749Z,10.00
2022-10-19T08:12:42.531Z,9.40
2022-10-19T08:14:07.867Z,8.95
2022-10-19T08:15:34.229Z,9.73
2022-10-19T08:17:05.769Z,9.82
2022-10-19T08:18:08.987Z,9.98
2022-10-19T08:19:17.645Z,9.27
2022-10-19T08:20:22.789Z,9.82
2022-10-19T08:21:25.298Z,8.98
2022-10-19T08:22:30.588Z,8.88
2022-10-19T08:23:32.588Z,9.35
2022-10-19T08:24:36.372Z,8.77
2022-10-19T08:25:38.310Z,9.10
2022-10-19T08:26:41.586Z,9.20
2022-10-19T08:27:53.442Z,8.80
2022-10-19T08:29:14.030Z,8.85
2022-10-19T08:30:16.904Z,8.88
2022-10-19T08:31:26.287Z,8.63
2022-10-19T08:32:31.916Z,8.75
2022-10-19T08:33:49.012Z,8.48
2022-10-19T08:34:54.308Z,9.02
2022-10-19T08:35:59.827Z,8.80
2022-10-19T08:37:10.291Z,10.02
2022-10-19T08:38:23.242Z,9.43
2022-10-19T08:39:27.213Z,9.93
2022-10-19T08:40:30.796Z,9.38
2022-10-19T08:41:52.206Z,9.07
2022-10-19T08:43:06.515Z,9.05
2022-10-19T08:44:16.828Z,9.05
2022-10-19T08:45:37.508Z,8.82
2022-10-19T08:46:51.831Z,8.88
2022-10-19T08:48:12.042Z,7.90
2022-10-19T08:49:38.327Z,8.45
2022-10-19T08:50:42.621Z,8.67
2022-10-19T08:51:44.934Z,8.23
2022-10-19T08:52:49.887Z,7.95
2022-10-19T08:55:23.231Z,7.40
2022-10-19T08:56:50.040Z,7.40
2022-10-19T08:58:08.709Z,8.00
2022-10-19T08:59:16.219Z,7.82
2022-10-19T09:00:27.604Z,8.43
2022-10-19T09:01:39.826Z,8.38
2022-10-19T09:03:02.524Z,8.45
2022-10-19T09:04:14.618Z,7.90
2022-10-19T09:05:34.828Z,8.10
2022-10-19T09:06:49.265Z,8.10
2022-10-19T09:07:57.097Z,7.95
2022-10-19T09:09:07.974Z,9.00
2022-10-19T09:10:19.170Z,7.55
2022-10-19T09:11:23.948Z,7.85
2022-10-19T09:12:45.141Z,8.15
2022-10-19T09:14:04.316Z,8.43
2022-10-19T09:15:18.290Z,8.52
2022-10-19T09:16:23.939Z,8.00
2022-10-19T09:17:26.687Z,9.27
2022-10-19T09:18:29.785Z,9.32
2022-10-19T09:19:32.710Z,9.10
2022-10-19T09:20:38.648Z,7.18
2022-10-19T09:21:51.741Z,7.38
2022-10-19T09:23:00.407Z,7.50
2022-10-19T09:24:16.520Z,6.88
2022-10-19T09:25:22.540Z,7.50
2022-10-19T09:26:36.472Z,7.20
2022-10-19T09:27:39.886Z,6.55
2022-10-19T09:28:44.111Z,6.60
2022-10-19T09:29:48.830Z,6.78
2022-10-19T09:30:54.432Z,6.75
2022-10-19T09:33:03.465Z,6.32
2022-10-19T09:34:21.244Z,6.50
2022-10-19T09:35:36.103Z,6.30
2022-10-19T09:36:50.447Z,6.03
2022-10-19T09:37:52.864Z,6.03
2022-10-19T09:38:57.246Z,5.80
2022-10-19T09:39:58.961Z,5.60
2022-10-19T09:41:12.491Z,5.20
2022-10-19T09:42:24.825Z,4.90
2022-10-19T09:43:28.023Z,5.20
2022-10-19T09:44:30.294Z,5.55
2022-10-19T09:45:49.742Z,4.80
2022-10-19T09:47:12.976Z,5.00
2022-10-19T09:48:20.523Z,4.97
2022-10-19T09:49:41.684Z,4.75
2022-10-19T09:50:44.863Z,4.82
2022-10-19T09:51:50.566Z,5.45
2022-10-19T09:53:02.635Z,5.15
2022-10-19T09:54:04.483Z,5.18
2022-10-19T09:55:15.383Z,6.03
2022-10-19T09:56:20.199Z,5.53
2022-10-19T09:57:25.019Z,5.80
2022-10-19T09:58:32.069Z,5.45
2022-10-19T09:59:36.710Z,5.18
2022-10-19T10:00:40.233Z,5.50
2022-10-19T10:01:45.840Z,5.10
2022-10-19T10:02:51.854Z,5.40
2022-10-19T10:04:04.765Z,6.93
2022-10-19T10:05:16.614Z,5.22
2022-10-19T10:06:21.086Z,5.55
2022-10-19T10:07:25.511Z,5.35
2022-10-19T10:08:30.212Z,5.07
2022-10-19T10:09:44.564Z,5.25
2022-10-19T10:10:57.282Z,4.70
2022-10-19T10:12:02.558Z,5.03
2022-10-19T10:13:04.185Z,5.20
2022-10-19T10:14:13.422Z,4.55
2022-10-19T10:15:33.342Z,5.43
2022-10-19T10:16:36.641Z,5.03
2022-10-19T10:17:38.689Z,4.97
2022-10-19T10:18:49.300Z,7.40
2022-10-19T10:19:51.604Z,4.68
2022-10-19T10:22:00.558Z,4.65
2022-10-19T10:23:06.461Z,4.97
2022-10-19T10:24:13.376Z,4.90
2022-10-19T10:25:18.013Z,4.88
2022-10-19T10:26:20.510Z,5.60
2022-10-19T10:27:30.411Z,10.43
2022-10-19T10:28:31.915Z,20.42
2022-10-19T10:29:35.120Z,6.43
2022-10-19T10:30:37.584Z,5.03
2022-10-19T10:31:41.522Z,5.10
2022-10-19T10:32:51.202Z,4.28
2022-10-19T10:34:06.391Z,4.20
2022-10-19T10:35:30.460Z,4.63
2022-10-19T10:36:32.024Z,5.10
2022-10-19T10:37:38.393Z,4.10
2022-10-19T10:38:43.177Z,4.30
2022-10-19T10:39:44.817Z,5.00
2022-10-19T10:40:51.419Z,4.10
2022-10-19T10:41:53.763Z,5.50
2022-10-19T10:42:58.459Z,4.50
2022-10-19T10:44:09.442Z,3.95
2022-10-19T10:45:38.250Z,4.10
2022-10-19T10:46:50.780Z,3.90
2022-10-19T10:47:52.971Z,3.88
2022-10-19T10:48:59.700Z,3.22
2022-10-19T10:50:05.843Z,3.70
2022-10-19T10:51:12.840Z,3.63
2022-10-19T10:52:18.046Z,3.63
2022-10-19T10:53:34.960Z,3.25
2022-10-19T10:54:37.189Z,3.28
2022-10-19T10:55:38.779Z,3.47
2022-10-19T10:56:44.017Z,3.88
2022-10-19T10:57:50.108Z,3.80
2022-10-19T10:58:59.532Z,3.15
2022-10-19T11:00:06.171Z,3.47
2022-10-19T11:01:13.307Z,3.20
2022-10-19T11:02:23.583Z,3.05
2022-10-19T11:03:29.175Z,4.28
2022-10-19T11:04:33.955Z,3.55
2022-10-19T11:05:42.951Z,3.45
2022-10-19T11:06:49.548Z,3.50
2022-10-19T11:08:00.964Z,3.42
2022-10-19T11:09:07.009Z,3.03
2022-10-19T11:10:14.671Z,3.08
2022-10-19T11:11:27.837Z,3.50
2022-10-19T11:12:45.253Z,3.40
2022-10-19T11:13:50.413Z,3.10
2022-10-19T11:15:05.788Z,2.97
2022-10-19T11:16:14.869Z,3.25
2022-10-19T11:17:18.850Z,3.55
2022-10-19T11:18:44.519Z,4.03
2022-10-19T11:19:46.361Z,4.80
2022-10-19T11:20:53.340Z,2.60
2022-10-19T11:21:57.635Z,2.30
2022-10-19T11:23:04.666Z,1.73
2022-10-19T11:24:06.098Z,1.90
2022-10-19T11:25:18.981Z,2.40
2022-10-19T11:26:39.067Z,1.90
2022-10-19T11:27:52.940Z,2.38
2022-10-19T11:29:06.511Z,1.90
2022-10-19T11:30:08.214Z,1.73
2022-10-19T11:31:16.502Z,1.70
2022-10-19T11:32:35.224Z,1.60
2022-10-19T11:33:46.687Z,1.40
2022-10-19T11:34:56.364Z,1.65
2022-10-19T11:35:58.887Z,1.30
2022-10-19T11:37:14.431Z,1.70
2022-10-19T11:38:31.104Z,1.60
2022-10-19T11:39:49.323Z,1.50
2022-10-19T11:41:13.279Z,1.45
2022-10-19T11:42:15.236Z,1.80
2022-10-19T11:43:26.340Z,1.80
2022-10-19T11:44:40.307Z,1.95
2022-10-19T11:45:41.575Z,2.72
2022-10-19T11:46:42.980Z,2.70
2022-10-19T11:48:07.570Z,2.38
2022-10-19T11:49:19.732Z,1.85
2022-10-19T11:50:54.369Z,2.55
2022-10-19T11:52:21.451Z,1.70
2022-10-19T11:53:36.105Z,1.67
2022-10-19T11:54:47.215Z,1.65
2022-10-19T11:55:56.574Z,1.83
2022-10-19T11:57:06.548Z,1.90
2022-10-19T11:58:18.747Z,1.70
2022-10-19T11:59:23.071Z,2.47
2022-10-19T12:00:38.582Z,2.30
2022-10-19T12:01:43.296Z,2.35
2022-10-19T12:03:03.497Z,1.95
2022-10-19T12:04:05.528Z,3.83
2022-10-19T12:05:26.446Z,2.45
2022-10-19T12:06:48.614Z,2.22
2022-10-19T12:07:59.945Z,1.70
2022-10-19T12:09:09.021Z,2.40
2022-10-19T12:10:30.054Z,1.45
2022-10-19T12:11:50.099Z,2.00
2022-10-19T12:12:58.838Z,1.50
2022-10-19T12:14:03.082Z,1.50
2022-10-19T12:15:16.599Z,1.35
2022-10-19T12:16:20.055Z,1.63
2022-10-19T12:17:26.773Z,2.00
2022-10-19T12:18:36.732Z,1.55
2022-10-19T12:19:44.210Z,1.58
2022-10-19T12:20:50.788Z,1.60
2022-10-19T12:21:55.318Z,2.40
2022-10-19T12:22:58.463Z,1.27
2022-10-19T12:24:01.991Z,1.40
2022-10-19T12:25:03.786Z,1.50
2022-10-19T12:26:11.613Z,1.77
2022-10-19T12:27:16.978Z,1.42
2022-10-19T12:28:23.038Z,1.30
2022-10-19T12:29:26.520Z,1.50
2022-10-19T12:30:27.999Z,1.45
2022-10-19T12:31:29.798Z,1.70
2022-10-19T12:32:33.428Z,1.52
2022-10-19T12:33:53.577Z,1.70
2022-10-19T12:35:14.753Z,1.58
2022-10-19T12:36:21.519Z,2.38
2022-10-19T12:37:26.149Z,1.00
2022-10-19T12:38:30.471Z,2.08
2022-10-19T12:39:38.069Z,2.65
2022-10-19T12:40:44.755Z,1.00
2022-10-19T12:41:58.395Z,1.00
2022-10-19T12:43:21.266Z,0.98
2022-10-19T12:44:39.669Z,1.20
2022-10-19T12:45:43.867Z,1.15
2022-10-19T12:46:49.895Z,1.13
2022-10-19T12:48:13.045Z,1.02
2022-10-19T12:49:26.503Z,1.17
2022-10-19T12:50:47.270Z,1.17
2022-10-19T12:51:51.034Z,1.40
2022-10-19T12:52:54.881Z,0.90
2022-10-19T12:54:08.031Z,1.33
2022-10-19T12:55:14.981Z,1.05
2022-10-19T12:56:25.018Z,1.48
2022-10-19T12:57:28.818Z,1.15
2022-10-19T12:58:47.863Z,1.40
2022-10-19T12:59:58.341Z,1.20
2022-10-19T13:01:00.835Z,0.80
2022-10-19T13:02:04.819Z,0.80
2022-10-19T13:03:06.131Z,0.93
2022-10-19T13:04:20.447Z,1.10
2022-10-19T13:05:24.180Z,0.80
2022-10-19T13:06:26.356Z,0.85
2022-10-19T13:07:30.572Z,0.80
2022-10-19T13:08:36.132Z,0.80
2022-10-19T13:09:39.411Z,0.90
2022-10-19T13:10:40.708Z,0.95
2022-10-19T13:12:02.547Z,1.40
2022-10-19T13:13:03.826Z,1.40
2022-10-19T13:14:07.177Z,1.20
2022-10-19T13:15:29.851Z,0.80
2022-10-19T13:16:31.159Z,1.17
2022-10-19T13:17:38.143Z,0.60
2022-10-19T13:18:59.278Z,0.85
2022-10-19T13:20:15.626Z,0.60
2022-10-19T13:21:35.542Z,0.90
2022-10-19T13:22:37.333Z,1.00
2022-10-19T13:23:39.856Z,0.80
2022-10-19T13:26:07.279Z,1.13
2022-10-19T13:27:08.510Z,0.90
2022-10-19T13:28:10.283Z,0.90
2022-10-19T13:29:27.708Z,0.90
2022-10-19T13:30:38.307Z,0.82
2022-10-19T13:31:39.717Z,1.00
2022-10-19T13:32:45.194Z,0.70
2022-10-19T13:33:47.876Z,0.90
2022-10-19T13:34:49.371Z,0.80
2022-10-19T13:36:06.965Z,1.10
2022-10-19T13:37:13.159Z,1.30
2022-10-19T13:38:17.641Z,1.05
2022-10-19T13:39:19.155Z,1.27
2022-10-19T13:40:23.759Z,1.50
2022-10-19T13:41:46.603Z,1.40
2022-10-19T13:42:57.281Z,1.02
2022-10-19T13:44:12.227Z,0.90
2022-10-19T13:45:23.555Z,1.10
2022-10-19T13:46:34.030Z,0.80
2022-10-19T13:47:39.938Z,1.00
2022-10-19T13:48:49.921Z,0.80
2022-10-19T13:49:58.472Z,0.80
2022-10-19T13:51:20.076Z,0.80
2022-10-19T13:52:40.300Z,0.95
2022-10-19T13:54:06.210Z,1.00
2022-10-19T13:55:27.761Z,0.70
2022-10-19T13:56:47.335Z,0.98
2022-10-19T13:57:54.131Z,0.90
2022-10-19T13:59:06.091Z,0.70
2022-10-19T14:00:17.075Z,0.93
2022-10-19T14:01:37.351Z,0.73
2022-10-19T14:02:48.399Z,0.68
2022-10-19T14:04:02.119Z,0.80
2022-10-19T14:05:11.546Z,1.48
2022-10-19T14:06:18.992Z,0.90
2022-10-19T14:07:24.338Z,1.15
2022-10-19T14:08:34.328Z,0.60
2022-10-19T14:09:35.582Z,0.75
2022-10-19T14:10:49.544Z,0.80
2022-10-19T14:12:11.309Z,1.30
2022-10-19T14:13:14.600Z,0.90
2022-10-19T14:14:24.994Z,0.90
2022-10-19T14:15:27.949Z,1.00
2022-10-19T14:16:29.234Z,0.90
2022-10-19T14:17:34.056Z,1.25
2022-10-19T14:18:36.597Z,1.00
2022-10-19T14:19:57.733Z,0.80
2022-10-19T14:21:00.459Z,1.30
2022-10-19T14:22:16.903Z,1.70
2022-10-19T14:23:23.778Z,1.20
2022-10-19T14:24:32.383Z,0.80
2022-10-19T14:25:33.840Z,0.90
2022-10-19T14:26:35.241Z,0.90
2022-10-19T14:27:37.001Z,1.45
2022-10-19T14:28:42.139Z,1.30
2022-10-19T14:29:46.251Z,0.90
2022-10-19T14:30:55.047Z,0.90
2022-10-19T14:31:58.156Z,0.90
2022-10-19T14:33:02.321Z,1.50
2022-10-19T14:34:07.293Z,1.23
2022-10-19T14:35:21.228Z,1.00
2022-10-19T14:36:25.009Z,2.72
2022-10-19T14:37:27.003Z,2.70
2022-10-19T14:38:31.827Z,0.90
2022-10-19T14:39:33.958Z,0.90
2022-10-19T14:40:39.515Z,1.02
2022-10-19T14:41:43.131Z,0.80
2022-10-19T14:42:48.118Z,0.80
2022-10-19T14:43:50.190Z,0.90
2022-10-19T14:44:51.539Z,0.80
2022-10-19T14:46:07.636Z,0.70
2022-10-19T14:47:19.820Z,0.90
2022-10-19T14:48:22.295Z,0.80
2022-10-19T14:49:23.583Z,0.70
2022-10-19T14:50:28.245Z,1.65
2022-10-19T14:51:44.215Z,1.05
2022-10-19T14:52:45.819Z,1.25
2022-10-19T14:53:54.646Z,1.00
2022-10-19T14:54:56.452Z,1.20
2022-10-19T14:56:01.544Z,1.00
2022-10-19T14:57:02.779Z,1.30
2022-10-19T14:58:07.033Z,0.77
2022-10-19T14:59:26.238Z,0.60
2022-10-19T15:00:29.993Z,0.70
2022-10-19T15:01:31.286Z,0.82
2022-10-19T15:02:35.607Z,0.70
2022-10-19T15:03:42.849Z,1.00
2022-10-19T15:04:45.189Z,0.75
2022-10-19T15:05:48.200Z,0.80
2022-10-19T15:06:49.890Z,0.70
2022-10-19T15:07:51.579Z,0.75
2022-10-19T15:08:55.494Z,0.80
2022-10-19T15:09:59.902Z,0.80
2022-10-19T15:11:01.239Z,0.60
2022-10-19T15:12:22.135Z,0.80
2022-10-19T15:13:33.070Z,0.70
2022-10-19T15:14:34.694Z,0.55
2022-10-19T15:15:36.489Z,0.80
2022-10-19T15:16:50.222Z,0.98
2022-10-19T15:18:00.859Z,1.08
2022-10-19T15:19:04.150Z,0.88
2022-10-19T15:20:23.497Z,0.70
2022-10-19T15:21:27.274Z,0.90
2022-10-19T15:22:30.475Z,0.50
2022-10-19T15:23:33.761Z,0.70
2022-10-19T15:24:35.744Z,1.08
2022-10-19T15:25:37.230Z,0.80
2022-10-19T15:26:38.510Z,0.70
2022-10-19T15:27:41.832Z,0.90
2022-10-19T15:28:43.388Z,0.70
2022-10-19T15:29:56.087Z,0.73
2022-10-19T15:31:04.453Z,0.88
2022-10-19T15:32:29.359Z,0.70
2022-10-19T15:33:37.175Z,0.82
2022-10-19T15:34:40.371Z,0.93
2022-10-19T15:35:43.974Z,0.80
2022-10-19T15:36:54.633Z,0.60
2022-10-19T15:38:19.518Z,0.80
2022-10-19T15:39:33.047Z,0.82
2022-10-19T15:40:42.006Z,0.80
2022-10-19T15:41:43.263Z,1.60
2022-10-19T15:42:46.963Z,0.90
2022-10-19T15:43:48.362Z,0.80
2022-10-19T15:44:49.975Z,1.10
2022-10-19T15:46:09.730Z,0.70
2022-10-19T15:47:18.906Z,0.90
2022-10-19T15:48:38.802Z,0.98
2022-10-19T15:49:43.522Z,1.30
2022-10-19T15:50:47.750Z,0.90
2022-10-19T15:51:49.282Z,0.90
2022-10-19T15:52:50.852Z,2.28
2022-10-19T15:53:58.223Z,1.30
2022-10-19T15:55:00.111Z,0.77
2022-10-19T15:56:01.456Z,0.95
2022-10-19T15:57:02.742Z,0.75
2022-10-19T15:58:03.991Z,0.95
2022-10-19T15:59:15.614Z,1.42
2022-10-19T16:00:17.888Z,0.65
2022-10-19T16:01:21.097Z,1.30
2022-10-19T16:02:25.137Z,1.90
2022-10-19T16:03:26.392Z,1.00
2022-10-19T16:04:27.646Z,1.00
2022-10-19T16:05:29.242Z,0.90
2022-10-19T16:06:32.442Z,0.73
2022-10-19T16:07:36.127Z,0.88
2022-10-19T16:08:37.755Z,0.90
2022-10-19T16:09:45.036Z,1.10
2022-10-19T16:10:47.474Z,1.05
2022-10-19T16:11:50.217Z,1.13
2022-10-19T16:12:52.125Z,1.10
2022-10-19T16:13:53.435Z,1.05
2022-10-19T16:14:54.933Z,1.20
2022-10-19T16:16:10.468Z,1.08
2022-10-19T16:17:15.938Z,1.75
2022-10-19T16:18:18.659Z,1.60
2022-10-19T16:19:20.383Z,1.70
2022-10-19T16:20:22.225Z,2.03
2022-10-19T16:21:26.710Z,2.15
2022-10-19T16:22:28.045Z,2.33
2022-10-19T16:23:30.734Z,3.40
2022-10-19T16:24:32.204Z,1.83
2022-10-19T16:25:33.753Z,1.98
2022-10-19T16:26:35.134Z,2.87
2022-10-19T16:27:36.833Z,2.83
2022-10-19T16:28:38.323Z,3.00
2022-10-19T16:29:41.977Z,3.75
2022-10-19T16:30:43.418Z,7.47
2022-10-19T16:31:45.617Z,4.05
2022-10-19T16:32:50.993Z,3.10
2022-10-19T16:33:52.370Z,4.60
2022-10-19T16:34:53.846Z,3.53
2022-10-19T16:35:55.133Z,3.10
2022-10-19T16:36:56.380Z,3.05
2022-10-19T16:37:58.972Z,2.80
2022-10-19T16:39:01.327Z,3.20
2022-10-19T16:40:02.715Z,3.20
2022-10-19T16:41:05.305Z,3.22
2022-10-19T16:42:06.757Z,4.30
2022-10-19T16:43:08.729Z,3.95
2022-10-19T16:44:13.625Z,4.10
2022-10-19T16:45:15.521Z,4.20
2022-10-19T16:46:20.999Z,4.60
2022-10-19T16:47:22.294Z,4.20
2022-10-19T16:48:24.401Z,6.22
2022-10-19T16:49:26.319Z,5.00
2022-10-19T16:50:27.679Z,5.20
2022-10-19T16:51:33.036Z,4.40
2022-10-19T16:52:34.767Z,4.90
2022-10-19T16:53:37.353Z,4.53
2022-10-19T16:54:38.631Z,4.80
2022-10-19T16:55:40.581Z,4.80
2022-10-19T16:56:45.545Z,4.63
2022-10-19T16:57:46.779Z,4.63
2022-10-19T16:58:48.032Z,4.40
2022-10-19T17:00:56.530Z,3.75
2022-10-19T17:01:58.520Z,7.15
2022-10-19T17:02:59.763Z,8.05
2022-10-19T17:04:01.070Z,8.38
2022-10-19T17:05:02.329Z,8.15
2022-10-19T17:06:04.756Z,7.70
2022-10-19T17:07:06.246Z,6.80
2022-10-19T17:08:09.112Z,5.75
2022-10-19T17:10:31.769Z,4.10
2022-10-19T17:11:34.454Z,4.78
2022-10-19T17:12:36.209Z,4.47
2022-10-19T17:13:37.720Z,4.85
2022-10-19T17:14:40.291Z,4.50
2022-10-19T17:15:43.293Z,4.57
2022-10-19T17:16:44.951Z,4.32
2022-10-19T17:17:46.347Z,4.15
2022-10-19T17:18:47.908Z,4.60
2022-10-19T17:19:52.249Z,4.75
2022-10-19T17:20:55.555Z,5.95
2022-10-19T17:21:59.296Z,4.30
2022-10-19T17:23:00.587Z,3.88
2022-10-19T17:24:02.856Z,3.42
2022-10-19T17:25:04.567Z,3.83
2022-10-19T17:26:06.359Z,3.70
2022-10-19T17:27:07.970Z,3.40
2022-10-19T17:28:09.383Z,3.85
2022-10-19T17:29:11.378Z,3.55
2022-10-19T17:30:12.817Z,4.13
2022-10-19T17:31:14.481Z,3.55
2022-10-19T17:32:15.736Z,4.10
2022-10-19T17:33:17.024Z,4.00
2022-10-19T17:34:18.426Z,4.22
2022-10-19T17:35:19.900Z,4.20
2022-10-19T17:36:28.049Z,4.53
2022-10-19T17:37:29.554Z,4.20
2022-10-19T17:38:31.673Z,4.00
2022-10-19T17:39:33.095Z,4.32
2022-10-19T17:40:34.799Z,4.00
2022-10-19T17:41:36.056Z,4.95
2022-10-19T17:42:37.680Z,3.92
2022-10-19T17:43:39.645Z,3.75
2022-10-19T17:44:41.735Z,4.33
2022-10-19T17:45:44.928Z,3.80
2022-10-19T17:46:46.903Z,4.07
2022-10-19T17:47:48.285Z,3.92
2022-10-19T17:48:49.619Z,3.80
2022-10-19T17:49:51.236Z,3.65
2022-10-19T17:51:00.431Z,3.78
2022-10-19T17:52:01.986Z,4.05
2022-10-19T17:53:03.306Z,3.83
2022-10-19T17:54:10.445Z,4.20
2022-10-19T17:55:13.447Z,4.13
2022-10-19T17:56:16.582Z,3.80